createdAt,value
2019-05-22T00:02:10.737Z,2.90
2019-05-22T00:04:38.363Z,2.90
2019-05-22T00:07:08.419Z,3.37
2019-05-22T00:09:36.677Z,2.97
2019-05-22T00:12:04.947Z,3.03
2019-05-22T00:14:33.340Z,3.20
2019-05-22T00:17:00.843Z,2.90
2019-05-22T00:19:28.336Z,3.20
2019-05-22T00:21:58.413Z,3.00
2019-05-22T00:24:26.723Z,2.83
2019-05-22T00:26:54.250Z,3.33
2019-05-22T00:29:22.597Z,2.77
2019-05-22T00:31:50.200Z,3.17
2019-05-22T00:34:17.915Z,2.70
2019-05-22T00:36:45.425Z,3.03
2019-05-22T00:39:13.688Z,3.07
2019-05-22T00:41:41.949Z,2.60
2019-05-22T00:44:09.431Z,2.57
2019-05-22T00:46:36.913Z,2.97
2019-05-22T00:49:05.345Z,2.47
2019-05-22T00:51:35.281Z,2.90
2019-05-22T00:54:23.490Z,2.77
2019-05-22T00:56:51.984Z,2.40
2019-05-22T00:59:19.570Z,3.00
2019-05-22T01:01:47.971Z,2.70
2019-05-22T01:04:15.458Z,3.40
2019-05-22T01:06:42.957Z,3.07
2019-05-22T01:09:10.796Z,3.00
2019-05-22T01:11:38.278Z,3.00
2019-05-22T01:14:05.779Z,2.90
2019-05-22T01:16:33.262Z,2.90
2019-05-22T01:19:01.522Z,3.00
2019-05-22T01:21:29.046Z,3.20
2019-05-22T01:23:56.556Z,2.87
2019-05-22T01:26:24.044Z,3.33
2019-05-22T01:28:51.538Z,3.00
2019-05-22T01:31:25.659Z,3.10
2019-05-22T01:33:54.048Z,2.67
2019-05-22T01:36:25.005Z,2.63
2019-05-22T01:38:52.715Z,2.47
2019-05-22T01:41:24.924Z,2.57
2019-05-22T01:43:52.448Z,2.40
2019-05-22T01:46:19.950Z,2.87
2019-05-22T01:48:47.466Z,2.47
2019-05-22T01:51:15.892Z,2.50
2019-05-22T01:53:43.399Z,2.20
2019-05-22T01:56:11.808Z,2.40
2019-05-22T01:58:39.238Z,2.33
2019-05-22T02:01:23.413Z,2.80
2019-05-22T02:03:51.241Z,2.47
2019-05-22T02:06:19.275Z,2.50
2019-05-22T02:08:47.582Z,2.27
2019-05-22T02:11:15.079Z,2.00
2019-05-22T02:13:47.238Z,2.70
2019-05-22T02:16:14.896Z,2.23
2019-05-22T02:18:42.377Z,2.03
2019-05-22T02:21:10.641Z,2.40
2019-05-22T02:23:39.641Z,2.57
2019-05-22T02:26:07.669Z,2.20
2019-05-22T02:28:35.749Z,2.77
2019-05-22T02:31:04.691Z,2.33
2019-05-22T02:33:32.257Z,2.27
2019-05-22T02:35:59.752Z,2.43
2019-05-22T02:38:27.429Z,2.37
2019-05-22T02:40:55.755Z,2.30
2019-05-22T02:43:23.245Z,2.40
2019-05-22T02:45:51.700Z,2.00
2019-05-22T02:48:19.398Z,2.27
2019-05-22T02:50:47.665Z,2.30
2019-05-22T02:53:15.949Z,2.70
2019-05-22T02:55:44.229Z,2.67
2019-05-22T02:58:12.717Z,2.43
2019-05-22T03:03:36.314Z,2.92
2019-05-22T03:06:05.574Z,2.67
2019-05-22T03:11:28.348Z,2.80
2019-05-22T03:13:55.898Z,2.63
2019-05-22T03:16:23.676Z,2.57
2019-05-22T03:19:07.799Z,2.20
2019-05-22T03:21:18.898Z,2.60
2019-05-22T03:23:46.414Z,2.30
2019-05-22T03:26:14.093Z,2.47
2019-05-22T03:28:41.809Z,2.47
2019-05-22T03:31:09.352Z,2.20
2019-05-22T03:33:36.835Z,2.47
2019-05-22T03:36:07.164Z,2.20
2019-05-22T03:38:34.713Z,2.30
2019-05-22T03:41:04.680Z,2.17
2019-05-22T03:43:32.221Z,2.03
2019-05-22T03:46:00.684Z,2.60
2019-05-22T03:48:29.826Z,2.10
2019-05-22T03:50:58.490Z,2.47
2019-05-22T03:53:26.042Z,2.27
2019-05-22T03:55:53.615Z,2.27
2019-05-22T03:58:21.126Z,2.20
2019-05-22T04:00:50.100Z,2.30
2019-05-22T04:03:18.520Z,2.27
2019-05-22T04:05:46.028Z,2.30
2019-05-22T04:08:14.303Z,2.40
2019-05-22T04:10:51.685Z,2.10
2019-05-22T04:13:19.248Z,2.17
2019-05-22T04:15:46.814Z,2.40
2019-05-22T04:18:14.316Z,2.77
2019-05-22T04:20:41.848Z,2.33
2019-05-22T04:23:09.396Z,2.00
2019-05-22T04:25:36.922Z,2.00
2019-05-22T04:28:04.430Z,2.20
2019-05-22T04:30:31.933Z,2.30
2019-05-22T04:32:59.666Z,2.50
2019-05-22T04:35:27.294Z,2.83
2019-05-22T04:37:54.791Z,2.40
2019-05-22T04:43:23.155Z,2.53
2019-05-22T04:45:50.845Z,2.50
2019-05-22T04:48:18.362Z,2.30
2019-05-22T04:50:45.903Z,2.40
2019-05-22T04:53:13.425Z,2.60
2019-05-22T04:55:41.088Z,2.17
2019-05-22T04:58:12.554Z,2.30
2019-05-22T05:00:40.799Z,2.80
2019-05-22T05:03:09.064Z,3.00
2019-05-22T05:05:41.037Z,2.50
2019-05-22T05:08:08.653Z,2.77
2019-05-22T05:10:36.468Z,2.77
2019-05-22T05:13:04.036Z,2.60
2019-05-22T05:15:31.638Z,2.27
2019-05-22T05:17:59.207Z,2.60
2019-05-22T05:20:26.875Z,2.40
2019-05-22T05:22:54.358Z,2.20
2019-05-22T05:25:22.709Z,2.03
2019-05-22T05:27:50.382Z,1.80
2019-05-22T05:30:17.865Z,2.30
2019-05-22T05:32:46.131Z,2.30
2019-05-22T05:35:14.419Z,2.40
2019-05-22T05:37:42.789Z,2.50
2019-05-22T05:43:07.656Z,2.90
2019-05-22T05:45:35.155Z,2.93
2019-05-22T05:48:04.467Z,2.40
2019-05-22T05:50:39.444Z,2.47
2019-05-22T05:53:01.231Z,2.50
2019-05-22T05:55:29.515Z,2.40
2019-05-22T06:01:01.984Z,2.80
2019-05-22T06:03:32.194Z,2.40
2019-05-22T06:06:01.597Z,2.20
2019-05-22T06:08:29.178Z,2.50
2019-05-22T06:11:18.123Z,2.47
2019-05-22T06:13:45.711Z,2.97
2019-05-22T06:19:30.253Z,2.70
2019-05-22T06:21:57.746Z,2.65
2019-05-22T06:25:01.778Z,2.70
2019-05-22T06:27:29.340Z,2.67
2019-05-22T06:29:57.020Z,2.13
2019-05-22T06:35:23.222Z,3.12
2019-05-22T06:40:50.972Z,2.70
2019-05-22T06:46:47.453Z,2.58
2019-05-22T06:49:36.223Z,2.93
2019-05-22T06:52:05.763Z,2.33
2019-05-22T06:54:34.138Z,2.90
2019-05-22T06:57:02.025Z,2.50
2019-05-22T06:59:30.366Z,2.70
2019-05-22T07:02:01.259Z,2.60
2019-05-22T07:04:25.382Z,2.97
2019-05-22T07:06:52.883Z,2.60
2019-05-22T07:09:21.245Z,2.80
2019-05-22T07:11:48.760Z,2.27
2019-05-22T07:14:16.243Z,2.23
2019-05-22T07:16:43.826Z,2.23
2019-05-22T07:19:11.424Z,2.77
2019-05-22T07:21:39.671Z,2.67
2019-05-22T07:24:07.168Z,2.70
2019-05-22T07:26:35.578Z,2.10
2019-05-22T07:29:05.177Z,2.50
2019-05-22T07:31:31.485Z,2.57
2019-05-22T07:33:59.139Z,2.70
2019-05-22T07:36:26.807Z,2.43
2019-05-22T07:38:54.300Z,2.40
2019-05-22T07:41:22.569Z,2.70
2019-05-22T07:43:51.042Z,2.80
2019-05-22T07:46:19.291Z,2.95
2019-05-22T07:48:46.797Z,2.53
2019-05-22T07:51:15.190Z,2.73
2019-05-22T07:53:42.695Z,2.77
2019-05-22T07:56:10.620Z,2.80
2019-05-22T07:58:38.170Z,2.83
2019-05-22T08:01:05.653Z,2.57
2019-05-22T08:03:33.978Z,2.97
2019-05-22T08:06:01.569Z,2.40
2019-05-22T08:08:29.155Z,2.77
2019-05-22T08:10:57.526Z,2.77
2019-05-22T08:13:25.303Z,3.00
2019-05-22T08:15:53.667Z,2.80
2019-05-22T08:18:21.155Z,2.77
2019-05-22T08:20:49.428Z,2.27
2019-05-22T08:23:16.919Z,2.70
2019-05-22T08:25:44.431Z,2.93
2019-05-22T08:28:12.070Z,2.75
2019-05-22T08:30:40.194Z,3.20
2019-05-22T08:33:07.670Z,3.27
2019-05-22T08:35:35.959Z,2.47
2019-05-22T08:38:04.910Z,2.70
2019-05-22T08:40:32.393Z,3.20
2019-05-22T08:43:00.037Z,3.10
2019-05-22T08:45:27.536Z,3.13
2019-05-22T08:47:55.899Z,2.70
2019-05-22T08:50:23.388Z,3.10
2019-05-22T08:52:51.754Z,3.57
2019-05-22T08:55:19.284Z,3.40
2019-05-22T08:57:46.969Z,3.30
2019-05-22T09:00:14.656Z,3.27
2019-05-22T09:02:42.913Z,3.20
2019-05-22T09:05:11.735Z,4.10
2019-05-22T09:07:40.110Z,3.20
2019-05-22T09:10:08.475Z,4.03
2019-05-22T09:12:35.971Z,3.80
2019-05-22T09:15:04.652Z,3.80
2019-05-22T09:17:32.894Z,4.10
2019-05-22T09:20:00.381Z,3.87
2019-05-22T09:22:39.982Z,3.07
2019-05-22T09:24:56.133Z,3.03
2019-05-22T09:27:24.568Z,3.07
2019-05-22T09:29:52.056Z,2.93
2019-05-22T09:32:20.495Z,3.40
2019-05-22T09:34:48.148Z,3.00
2019-05-22T09:37:16.402Z,3.30
2019-05-22T09:39:44.094Z,3.03
2019-05-22T09:42:12.538Z,3.07
2019-05-22T09:44:40.121Z,3.30
2019-05-22T09:47:08.449Z,3.43
2019-05-22T09:49:35.942Z,3.97
2019-05-22T09:52:04.559Z,3.30
2019-05-22T09:54:32.804Z,3.50
2019-05-22T09:57:00.586Z,3.37
2019-05-22T09:59:28.155Z,3.43
2019-05-22T10:01:57.260Z,2.90
2019-05-22T10:04:24.775Z,3.40
2019-05-22T10:06:52.306Z,3.53
2019-05-22T10:09:20.649Z,3.47
2019-05-22T10:11:48.330Z,3.37
2019-05-22T10:14:15.807Z,3.70
2019-05-22T10:16:43.875Z,3.10
2019-05-22T10:19:11.466Z,3.43
2019-05-22T10:21:40.615Z,3.43
2019-05-22T10:24:08.806Z,3.87
2019-05-22T10:26:36.461Z,3.60
2019-05-22T10:29:04.072Z,3.40
2019-05-22T10:31:32.428Z,2.80
2019-05-22T10:33:59.944Z,3.43
2019-05-22T10:36:27.663Z,3.37
2019-05-22T10:38:56.052Z,3.57
2019-05-22T10:41:24.435Z,3.23
2019-05-22T10:43:52.091Z,3.50
2019-05-22T10:46:19.577Z,2.90
2019-05-22T10:48:47.838Z,3.17
2019-05-22T10:51:15.392Z,3.00
2019-05-22T10:53:43.636Z,3.53
2019-05-22T10:56:11.296Z,3.30
2019-05-22T10:58:38.813Z,3.80
2019-05-22T11:01:06.323Z,3.43
2019-05-22T11:03:33.833Z,3.50
2019-05-22T11:06:07.018Z,3.77
2019-05-22T11:08:33.582Z,3.07
2019-05-22T11:10:56.339Z,3.23
2019-05-22T11:13:24.734Z,3.50
2019-05-22T11:15:53.015Z,4.40
2019-05-22T11:18:21.375Z,4.33
2019-05-22T11:20:49.702Z,4.70
2019-05-22T11:23:17.235Z,4.37
2019-05-22T11:25:45.525Z,5.20
2019-05-22T11:28:13.938Z,4.33
2019-05-22T11:30:41.594Z,4.43
2019-05-22T11:33:09.980Z,4.93
2019-05-22T11:35:37.554Z,5.13
2019-05-22T11:38:05.775Z,6.47
2019-05-22T11:40:33.300Z,7.10
2019-05-22T11:43:01.414Z,6.90
2019-05-22T11:45:29.009Z,7.63
2019-05-22T11:47:57.279Z,6.50
2019-05-22T11:50:24.760Z,6.87
2019-05-22T11:52:53.135Z,7.63
2019-05-22T11:55:21.396Z,6.00
2019-05-22T11:57:49.067Z,7.90
2019-05-22T12:00:17.408Z,7.60
2019-05-22T12:02:45.238Z,6.43
2019-05-22T12:05:13.578Z,7.13
2019-05-22T12:07:41.058Z,7.27
2019-05-22T12:10:09.592Z,8.17
2019-05-22T12:12:37.091Z,8.32
2019-05-22T12:15:06.559Z,7.13
2019-05-22T12:17:38.163Z,8.50
2019-05-22T12:20:01.658Z,8.03
2019-05-22T12:22:29.227Z,8.13
2019-05-22T12:24:57.511Z,8.82
2019-05-22T12:27:25.796Z,7.87
2019-05-22T12:29:54.049Z,8.60
2019-05-22T12:32:21.718Z,9.77
2019-05-22T12:34:49.862Z,8.30
2019-05-22T12:37:17.081Z,8.87
2019-05-22T12:39:44.715Z,10.00
2019-05-22T12:42:12.283Z,9.70
2019-05-22T12:44:40.641Z,7.97
2019-05-22T12:47:08.235Z,8.37
2019-05-22T12:49:35.910Z,8.43
2019-05-22T12:52:04.835Z,8.80
2019-05-22T12:54:46.197Z,7.73
2019-05-22T12:57:00.786Z,7.83
2019-05-22T12:59:28.299Z,7.47
2019-05-22T13:01:56.696Z,8.63
2019-05-22T13:04:24.272Z,8.97
2019-05-22T13:06:52.629Z,8.87
2019-05-22T13:09:20.123Z,8.67
2019-05-22T13:11:48.375Z,9.23
2019-05-22T13:14:15.864Z,7.97
2019-05-22T13:16:48.831Z,9.33
2019-05-22T13:19:12.298Z,8.43
2019-05-22T13:21:40.411Z,9.37
2019-05-22T13:24:07.930Z,8.03
2019-05-22T13:26:35.603Z,8.77
2019-05-22T13:29:04.607Z,8.48
2019-05-22T13:31:32.269Z,8.70
2019-05-22T13:33:59.766Z,7.70
2019-05-22T13:36:27.254Z,9.33
2019-05-22T13:38:54.744Z,8.97
2019-05-22T13:41:22.435Z,7.50
2019-05-22T13:43:49.924Z,7.17
2019-05-22T13:46:17.551Z,8.47
2019-05-22T13:48:45.758Z,9.53
2019-05-22T13:51:14.250Z,7.60
2019-05-22T13:53:41.951Z,6.60
2019-05-22T13:56:09.940Z,7.10
2019-05-22T13:58:37.524Z,6.73
2019-05-22T14:01:05.021Z,7.47
2019-05-22T14:03:33.045Z,6.00
2019-05-22T14:06:00.710Z,4.97
2019-05-22T14:08:28.190Z,5.30
2019-05-22T14:10:55.753Z,4.80
2019-05-22T14:13:23.237Z,3.50
2019-05-22T14:15:56.510Z,2.73
2019-05-22T14:18:20.929Z,2.80
2019-05-22T14:20:49.283Z,3.00
2019-05-22T14:23:16.832Z,2.83
2019-05-22T14:25:45.179Z,1.83
2019-05-22T14:28:14.174Z,2.60
2019-05-22T14:30:41.900Z,2.10
2019-05-22T14:33:09.423Z,2.40
2019-05-22T14:35:47.525Z,2.40
2019-05-22T14:38:04.443Z,2.50
2019-05-22T14:40:32.473Z,2.10
2019-05-22T14:42:59.954Z,2.53
2019-05-22T14:45:27.605Z,1.90
2019-05-22T14:47:55.161Z,3.27
2019-05-22T14:50:22.758Z,2.20
2019-05-22T14:52:50.439Z,2.30
2019-05-22T14:55:18.052Z,2.20
2019-05-22T14:57:45.575Z,2.23
2019-05-22T15:00:13.060Z,2.50
2019-05-22T15:02:40.596Z,2.00
2019-05-22T15:05:08.331Z,2.37
2019-05-22T15:07:36.717Z,2.93
2019-05-22T15:10:05.786Z,2.30
2019-05-22T15:12:33.284Z,2.50
2019-05-22T15:15:01.704Z,2.77
2019-05-22T15:17:32.843Z,2.33
2019-05-22T15:19:57.491Z,2.50
2019-05-22T15:22:26.253Z,2.30
2019-05-22T15:24:54.914Z,2.80
2019-05-22T15:27:22.530Z,2.63
2019-05-22T15:29:51.477Z,2.80
2019-05-22T15:32:19.180Z,2.70
2019-05-22T15:34:46.790Z,3.30
2019-05-22T15:37:15.707Z,3.20
2019-05-22T15:39:44.604Z,3.20
2019-05-22T15:42:13.459Z,4.03
2019-05-22T15:44:42.375Z,3.37
2019-05-22T15:47:11.200Z,3.30
2019-05-22T15:49:40.031Z,3.50
2019-05-22T15:52:08.912Z,4.13
2019-05-22T15:54:37.761Z,3.90
2019-05-22T15:57:09.670Z,3.60
2019-05-22T15:59:35.788Z,3.90
2019-05-22T16:02:04.710Z,3.83
2019-05-22T16:04:33.712Z,3.73
2019-05-22T16:07:03.279Z,4.47
2019-05-22T16:09:32.119Z,4.77
2019-05-22T16:12:00.959Z,4.00
2019-05-22T16:14:29.788Z,4.03
2019-05-22T16:16:58.666Z,4.63
2019-05-22T16:19:27.608Z,5.80
2019-05-22T16:21:56.611Z,4.30
2019-05-22T16:24:25.910Z,4.13
2019-05-22T16:26:55.249Z,4.13
2019-05-22T16:29:24.115Z,5.10
2019-05-22T16:31:52.947Z,4.97
2019-05-22T16:34:21.924Z,5.10
2019-05-22T16:36:50.874Z,5.67
2019-05-22T16:39:19.894Z,4.03
2019-05-22T16:41:48.754Z,5.07
2019-05-22T16:44:17.629Z,5.20
2019-05-22T16:46:46.562Z,4.77
2019-05-22T16:49:15.387Z,5.00
2019-05-22T16:51:44.220Z,4.47
2019-05-22T16:54:13.170Z,4.40
2019-05-22T16:56:42.183Z,4.60
2019-05-22T16:59:11.153Z,4.40
2019-05-22T17:01:57.524Z,4.00
2019-05-22T17:04:08.942Z,4.07
2019-05-22T17:06:37.780Z,5.30
2019-05-22T17:09:06.611Z,4.60
2019-05-22T17:11:35.502Z,5.03
2019-05-22T17:14:05.228Z,4.90
2019-05-22T17:16:34.230Z,4.10
2019-05-22T17:19:03.801Z,4.67
2019-05-22T17:21:32.869Z,4.90
2019-05-22T17:24:01.782Z,4.87
2019-05-22T17:26:30.628Z,5.23
2019-05-22T17:28:59.552Z,5.33
2019-05-22T17:31:29.639Z,4.57
2019-05-22T17:33:59.318Z,4.10
2019-05-22T17:36:28.154Z,4.10
2019-05-22T17:38:57.018Z,4.50
2019-05-22T17:41:26.035Z,4.23
2019-05-22T17:43:54.866Z,4.10
2019-05-22T17:46:23.702Z,4.20
2019-05-22T17:48:52.561Z,4.70
2019-05-22T17:51:21.512Z,3.83
2019-05-22T17:53:51.138Z,3.87
2019-05-22T17:56:20.130Z,3.13
2019-05-22T17:58:49.018Z,4.13
2019-05-22T18:01:18.124Z,3.57
2019-05-22T18:03:46.971Z,3.43
2019-05-22T18:06:15.817Z,3.83
2019-05-22T18:08:44.646Z,4.00
2019-05-22T18:11:13.590Z,3.67
2019-05-22T18:13:45.355Z,3.40
2019-05-22T18:16:14.183Z,3.90
2019-05-22T18:18:43.133Z,3.50
2019-05-22T18:21:11.961Z,4.30
2019-05-22T18:23:40.813Z,3.60
2019-05-22T18:26:09.636Z,3.87
2019-05-22T18:28:38.611Z,3.90
2019-05-22T18:31:07.518Z,3.40
2019-05-22T18:33:36.350Z,3.67
2019-05-22T18:36:05.171Z,3.83
2019-05-22T18:38:34.023Z,3.27
2019-05-22T18:41:03.747Z,3.20
2019-05-22T18:43:32.658Z,3.57
2019-05-22T18:46:01.494Z,3.30
2019-05-22T18:48:33.049Z,3.50
2019-05-22T18:50:59.346Z,3.07
2019-05-22T18:53:28.324Z,3.13
2019-05-22T18:55:57.789Z,3.00
2019-05-22T18:58:26.887Z,2.87
2019-05-22T19:00:55.726Z,2.73
2019-05-22T19:03:24.684Z,3.40
2019-05-22T19:05:53.579Z,3.07
2019-05-22T19:08:22.403Z,3.10
2019-05-22T19:10:51.244Z,3.23
2019-05-22T19:13:20.272Z,3.40
2019-05-22T19:15:49.107Z,3.60
2019-05-22T19:18:17.946Z,3.67
2019-05-22T19:20:46.936Z,3.90
2019-05-22T19:23:15.787Z,3.47
2019-05-22T19:25:44.721Z,4.23
2019-05-22T19:28:13.559Z,3.90
2019-05-22T19:30:42.398Z,4.33
2019-05-22T19:33:14.698Z,5.13
2019-05-22T19:35:40.316Z,4.87
2019-05-22T19:38:09.164Z,4.27
2019-05-22T19:40:38.032Z,4.50
2019-05-22T19:43:06.940Z,4.90
2019-05-22T19:45:35.888Z,4.80
2019-05-22T19:48:04.858Z,4.70
2019-05-22T19:50:33.761Z,5.07
2019-05-22T19:53:18.202Z,5.37
2019-05-22T19:55:32.195Z,4.20
2019-05-22T19:58:01.135Z,5.40
2019-05-22T20:00:30.077Z,6.10
2019-05-22T20:02:59.066Z,6.17
2019-05-22T20:05:28.078Z,6.47
2019-05-22T20:07:56.997Z,5.17
2019-05-22T20:10:25.961Z,6.33
2019-05-22T20:12:54.810Z,6.03
2019-05-22T20:15:23.643Z,5.53
2019-05-22T20:17:52.548Z,6.57
2019-05-22T20:20:21.627Z,6.30
2019-05-22T20:22:50.451Z,6.27
2019-05-22T20:25:19.351Z,6.43
2019-05-22T20:27:48.167Z,6.17
2019-05-22T20:30:17.122Z,6.17
2019-05-22T20:32:46.123Z,6.70
2019-05-22T20:35:15.117Z,7.07
2019-05-22T20:37:43.949Z,6.60
2019-05-22T20:40:13.076Z,6.70
2019-05-22T20:42:42.038Z,5.67
2019-05-22T20:45:11.038Z,6.00
2019-05-22T20:47:39.861Z,6.57
2019-05-22T20:50:08.906Z,6.90
2019-05-22T20:52:37.752Z,6.73
2019-05-22T20:55:06.589Z,6.50
2019-05-22T20:57:36.685Z,6.47
2019-05-22T21:00:05.972Z,6.90
2019-05-22T21:02:34.906Z,5.77
2019-05-22T21:05:04.713Z,6.60
2019-05-22T21:07:33.925Z,6.63
2019-05-22T21:10:03.633Z,7.30
2019-05-22T21:12:35.631Z,8.97
2019-05-22T21:15:01.525Z,8.53
2019-05-22T21:17:30.375Z,8.53
2019-05-22T21:19:59.207Z,7.63
2019-05-22T21:22:28.287Z,7.87
2019-05-22T21:24:57.334Z,6.83
2019-05-22T21:27:26.319Z,6.90
2019-05-22T21:29:55.209Z,7.13
2019-05-22T21:32:24.077Z,7.13
2019-05-22T21:34:52.929Z,6.93
2019-05-22T21:37:21.926Z,6.67
2019-05-22T21:39:51.244Z,6.87
2019-05-22T21:42:20.112Z,6.77
2019-05-22T21:44:48.961Z,6.57
2019-05-22T21:47:17.955Z,7.00
2019-05-22T21:49:46.870Z,6.30
2019-05-22T21:52:15.873Z,6.47
2019-05-22T21:54:44.779Z,6.83
2019-05-22T21:57:13.737Z,6.70
2019-05-22T21:59:42.562Z,6.70
2019-05-22T22:02:11.609Z,6.43
2019-05-22T22:04:40.643Z,5.97
2019-05-22T22:07:09.651Z,6.30
2019-05-22T22:09:38.687Z,6.60
2019-05-22T22:12:07.618Z,6.67
2019-05-22T22:14:36.448Z,6.20
2019-05-22T22:17:05.298Z,7.17
2019-05-22T22:19:34.229Z,6.53
2019-05-22T22:22:03.820Z,6.60
2019-05-22T22:24:32.841Z,6.60
2019-05-22T22:27:02.373Z,6.20
2019-05-22T22:29:31.334Z,6.07
2019-05-22T22:32:00.161Z,6.23
2019-05-22T22:34:28.993Z,6.70
2019-05-22T22:36:58.030Z,6.73
2019-05-22T22:39:26.942Z,6.53
2019-05-22T22:41:55.771Z,6.13
2019-05-22T22:44:24.602Z,5.70
2019-05-22T22:46:53.444Z,5.67
2019-05-22T22:49:22.280Z,6.20
2019-05-22T22:51:51.135Z,6.10
2019-05-22T22:54:19.960Z,6.00
2019-05-22T22:56:48.858Z,5.67
2019-05-22T22:59:17.722Z,5.77
2019-05-22T23:01:46.566Z,5.50
2019-05-22T23:04:15.574Z,5.63
2019-05-22T23:06:44.392Z,6.40
2019-05-22T23:09:13.233Z,5.50
2019-05-22T23:11:42.094Z,6.00
2019-05-22T23:14:10.941Z,5.20
2019-05-22T23:16:39.774Z,5.93
2019-05-22T23:19:23.640Z,4.43
2019-05-22T23:21:52.346Z,4.90
2019-05-22T23:24:21.345Z,5.03
2019-05-22T23:26:50.434Z,4.13
2019-05-22T23:29:19.456Z,5.03
2019-05-22T23:31:48.777Z,4.93
2019-05-22T23:34:17.829Z,4.50
2019-05-22T23:36:46.611Z,4.20
2019-05-22T23:39:15.512Z,3.90
2019-05-22T23:41:44.541Z,4.00
2019-05-22T23:44:13.411Z,4.27
2019-05-22T23:46:42.323Z,4.27
2019-05-22T23:49:11.153Z,3.90
2019-05-22T23:51:39.982Z,3.53
2019-05-22T23:54:09.097Z,3.13
2019-05-22T23:56:37.915Z,3.97
2019-05-22T23:59:06.743Z,3.90
